createdAt,value
2018-12-23T00:00:52.719Z,55.08
2018-12-23T00:01:55.215Z,55.06
2018-12-23T00:02:57.790Z,55.27
2018-12-23T00:04:00.281Z,55.03
2018-12-23T00:05:11.190Z,55.71
2018-12-23T00:06:07.402Z,55.04
2018-12-23T00:07:09.863Z,55.80
2018-12-23T00:08:12.378Z,55.66
2018-12-23T00:09:14.964Z,55.50
2018-12-23T00:10:17.500Z,56.33
2018-12-23T00:11:20.039Z,55.49
2018-12-23T00:12:22.590Z,55.92
2018-12-23T00:13:25.131Z,56.22
2018-12-23T00:14:27.624Z,56.30
2018-12-23T00:15:30.167Z,55.85
2018-12-23T00:16:32.642Z,55.51
2018-12-23T00:17:35.100Z,55.83
2018-12-23T00:18:37.614Z,55.16
2018-12-23T00:19:40.101Z,55.42
2018-12-23T00:20:42.578Z,55.90
2018-12-23T00:21:45.062Z,55.55
2018-12-23T00:22:47.541Z,55.28
2018-12-23T00:23:50.044Z,56.73
2018-12-23T00:24:52.598Z,56.06
2018-12-23T00:25:55.056Z,56.36
2018-12-23T00:26:57.528Z,56.56
2018-12-23T00:28:00.057Z,56.78
2018-12-23T00:29:02.547Z,56.86
2018-12-23T00:30:07.171Z,56.72
2018-12-23T00:31:09.659Z,56.26
2018-12-23T00:32:12.138Z,56.43
2018-12-23T00:33:14.603Z,56.77
2018-12-23T00:34:17.098Z,57.12
2018-12-23T00:35:20.569Z,56.75
2018-12-23T00:36:23.348Z,56.37
2018-12-23T00:37:25.830Z,56.93
2018-12-23T00:38:28.325Z,56.91
2018-12-23T00:39:30.823Z,56.87
2018-12-23T00:40:33.369Z,56.95
2018-12-23T00:41:36.709Z,56.43
2018-12-23T00:42:39.358Z,56.67
2018-12-23T00:43:41.834Z,56.59
2018-12-23T00:44:44.348Z,56.74
2018-12-23T00:45:46.827Z,57.02
2018-12-23T00:46:49.303Z,57.15
2018-12-23T00:47:51.782Z,56.59
2018-12-23T00:48:54.263Z,56.52
2018-12-23T00:49:56.762Z,57.05
2018-12-23T00:50:59.252Z,57.13
2018-12-23T00:52:01.728Z,56.59
2018-12-23T00:53:04.290Z,56.71
2018-12-23T00:54:06.780Z,56.96
2018-12-23T00:55:09.278Z,57.02
2018-12-23T00:56:11.806Z,57.32
2018-12-23T00:57:14.268Z,57.21
2018-12-23T00:58:16.842Z,57.03
2018-12-23T00:59:19.434Z,56.55
2018-12-23T01:00:21.934Z,56.70
2018-12-23T01:01:24.445Z,56.78
2018-12-23T01:02:26.921Z,56.23
2018-12-23T01:03:29.409Z,56.11
2018-12-23T01:04:31.901Z,56.43
2018-12-23T01:05:34.388Z,55.61
2018-12-23T01:06:36.859Z,54.38
2018-12-23T01:07:39.381Z,53.66
2018-12-23T01:08:41.887Z,53.85
2018-12-23T01:09:44.379Z,53.39
2018-12-23T01:10:46.987Z,53.81
2018-12-23T01:11:49.448Z,53.21
2018-12-23T01:12:51.903Z,53.42
2018-12-23T01:13:54.368Z,53.83
2018-12-23T01:14:56.828Z,53.41
2018-12-23T01:15:59.375Z,53.63
2018-12-23T01:17:01.920Z,53.30
2018-12-23T01:18:04.380Z,53.04
2018-12-23T01:19:06.900Z,53.03
2018-12-23T01:20:09.562Z,53.15
2018-12-23T01:21:12.081Z,53.79
2018-12-23T01:22:14.554Z,53.68
2018-12-23T01:23:17.026Z,53.89
2018-12-23T01:24:19.503Z,53.47
2018-12-23T01:25:21.993Z,53.40
2018-12-23T01:26:24.502Z,53.40
2018-12-23T01:27:26.979Z,53.91
2018-12-23T01:28:29.475Z,53.48
2018-12-23T01:29:32.026Z,54.05
2018-12-23T01:30:34.494Z,53.94
2018-12-23T01:31:36.989Z,54.35
2018-12-23T01:32:39.452Z,54.02
2018-12-23T01:33:41.936Z,54.09
2018-12-23T01:34:44.418Z,54.51
2018-12-23T01:35:46.911Z,54.15
2018-12-23T01:36:49.429Z,54.62
2018-12-23T01:37:51.929Z,54.20
2018-12-23T01:38:54.403Z,54.31
2018-12-23T01:39:56.876Z,55.06
2018-12-23T01:40:59.358Z,54.42
2018-12-23T01:42:01.873Z,54.44
2018-12-23T01:43:04.346Z,55.07
2018-12-23T01:44:06.837Z,54.58
2018-12-23T01:45:09.331Z,54.67
2018-12-23T01:46:11.838Z,54.86
2018-12-23T01:47:14.339Z,55.03
2018-12-23T01:48:16.795Z,55.31
2018-12-23T01:49:19.274Z,54.90
2018-12-23T01:50:21.761Z,55.63
2018-12-23T01:51:24.258Z,55.16
2018-12-23T01:52:26.818Z,55.65
2018-12-23T01:53:29.315Z,55.49
2018-12-23T01:54:31.776Z,55.88
2018-12-23T01:55:34.268Z,55.55
2018-12-23T01:56:36.830Z,55.62
2018-12-23T01:57:39.401Z,55.79
2018-12-23T01:58:41.886Z,55.20
2018-12-23T01:59:44.402Z,55.18
2018-12-23T02:00:46.891Z,55.61
2018-12-23T02:01:49.374Z,55.52
2018-12-23T02:02:51.886Z,55.74
2018-12-23T02:03:54.371Z,55.93
2018-12-23T02:04:56.850Z,55.93
2018-12-23T02:05:59.333Z,55.41
2018-12-23T02:07:01.890Z,55.51
2018-12-23T02:08:04.443Z,55.91
2018-12-23T02:09:06.982Z,56.07
2018-12-23T02:10:09.540Z,56.55
2018-12-23T02:11:12.042Z,56.09
2018-12-23T02:12:14.537Z,56.56
2018-12-23T02:13:17.030Z,56.58
2018-12-23T02:14:19.589Z,56.40
2018-12-23T02:15:22.052Z,56.63
2018-12-23T02:16:24.969Z,56.15
2018-12-23T02:17:27.432Z,56.46
2018-12-23T02:18:30.017Z,56.27
2018-12-23T02:19:32.499Z,56.69
2018-12-23T02:20:34.998Z,56.39
2018-12-23T02:21:37.665Z,56.88
2018-12-23T02:22:40.142Z,56.88
2018-12-23T02:23:42.637Z,56.01
2018-12-23T02:24:45.147Z,56.77
2018-12-23T02:25:47.637Z,56.93
2018-12-23T02:26:50.189Z,57.11
2018-12-23T02:27:52.703Z,57.38
2018-12-23T02:28:55.182Z,57.56
2018-12-23T02:29:57.640Z,57.92
2018-12-23T02:31:00.118Z,57.79
2018-12-23T02:32:02.606Z,57.54
2018-12-23T02:33:05.078Z,57.47
2018-12-23T02:34:07.575Z,57.55
2018-12-23T02:35:10.070Z,57.57
2018-12-23T02:36:12.567Z,58.10
2018-12-23T02:37:15.044Z,58.20
2018-12-23T02:38:17.531Z,57.89
2018-12-23T02:39:20.037Z,57.88
2018-12-23T02:40:22.610Z,57.59
2018-12-23T02:41:31.458Z,57.69
2018-12-23T02:42:29.567Z,57.39
2018-12-23T02:43:32.050Z,57.42
2018-12-23T02:44:34.520Z,57.41
2018-12-23T02:45:36.996Z,57.42
2018-12-23T02:46:39.464Z,57.69
2018-12-23T02:47:41.936Z,57.41
2018-12-23T02:48:44.400Z,57.16
2018-12-23T02:49:46.932Z,57.16
2018-12-23T02:50:49.390Z,57.75
2018-12-23T02:51:51.884Z,57.63
2018-12-23T02:52:54.401Z,57.48
2018-12-23T02:53:56.889Z,57.78
2018-12-23T02:54:59.373Z,57.29
2018-12-23T02:56:01.857Z,57.70
2018-12-23T02:57:04.340Z,57.74
2018-12-23T02:58:06.822Z,57.09
2018-12-23T02:59:09.296Z,57.10
2018-12-23T03:00:11.777Z,57.09
2018-12-23T03:01:14.232Z,57.64
2018-12-23T03:02:16.706Z,56.96
2018-12-23T03:03:19.396Z,57.14
2018-12-23T03:04:21.853Z,57.53
2018-12-23T03:05:24.354Z,57.50
2018-12-23T03:06:26.830Z,57.83
2018-12-23T03:07:29.303Z,58.09
2018-12-23T03:08:31.775Z,58.31
2018-12-23T03:09:34.252Z,58.61
2018-12-23T03:10:36.752Z,58.23
2018-12-23T03:11:39.311Z,58.56
2018-12-23T03:12:41.797Z,58.63
2018-12-23T03:13:44.252Z,58.15
2018-12-23T03:14:46.726Z,58.81
2018-12-23T03:15:49.299Z,58.85
2018-12-23T03:16:51.986Z,58.92
2018-12-23T03:17:54.618Z,58.42
2018-12-23T03:18:57.098Z,58.11
2018-12-23T03:19:59.571Z,58.61
2018-12-23T03:21:02.129Z,58.40
2018-12-23T03:22:04.680Z,58.98
2018-12-23T03:23:07.154Z,59.23
2018-12-23T03:24:09.633Z,58.68
2018-12-23T03:25:12.102Z,58.60
2018-12-23T03:26:14.625Z,58.50
2018-12-23T03:27:17.117Z,58.54
2018-12-23T03:28:19.580Z,59.61
2018-12-23T03:29:22.054Z,58.85
2018-12-23T03:30:24.529Z,59.26
2018-12-23T03:31:27.011Z,59.49
2018-12-23T03:32:29.505Z,59.69
2018-12-23T03:33:32.005Z,59.87
2018-12-23T03:34:34.506Z,59.74
2018-12-23T03:35:36.978Z,59.41
2018-12-23T03:36:39.511Z,59.26
2018-12-23T03:37:41.977Z,59.88
2018-12-23T03:38:44.456Z,59.37
2018-12-23T03:39:46.919Z,60.06
2018-12-23T03:40:49.391Z,59.71
2018-12-23T03:41:51.949Z,60.19
2018-12-23T03:42:54.554Z,59.52
2018-12-23T03:43:57.030Z,60.50
2018-12-23T03:44:59.510Z,60.06
2018-12-23T03:46:01.983Z,59.72
2018-12-23T03:47:04.513Z,60.30
2018-12-23T03:48:07.009Z,60.14
2018-12-23T03:49:09.504Z,59.76
2018-12-23T03:50:11.995Z,59.67
2018-12-23T03:51:14.484Z,59.14
2018-12-23T03:52:17.071Z,60.37
2018-12-23T03:53:19.552Z,60.32
2018-12-23T03:54:22.043Z,60.33
2018-12-23T03:55:24.558Z,60.31
2018-12-23T03:56:27.034Z,60.38
2018-12-23T03:57:29.534Z,59.94
2018-12-23T03:58:32.007Z,60.04
2018-12-23T03:59:34.483Z,60.58
2018-12-23T04:00:36.955Z,60.45
2018-12-23T04:01:39.438Z,60.65
2018-12-23T04:02:41.916Z,61.33
2018-12-23T04:03:44.462Z,60.70
2018-12-23T04:04:46.964Z,60.33
2018-12-23T04:05:49.528Z,60.67
2018-12-23T04:06:52.026Z,60.57
2018-12-23T04:07:54.517Z,60.43
2018-12-23T04:08:56.983Z,60.36
2018-12-23T04:09:59.453Z,60.71
2018-12-23T04:11:01.923Z,60.40
2018-12-23T04:12:04.398Z,60.47
2018-12-23T04:13:06.891Z,61.52
2018-12-23T04:14:09.387Z,60.53
2018-12-23T04:15:11.953Z,60.79
2018-12-23T04:16:14.431Z,60.90
2018-12-23T04:17:16.910Z,60.69
2018-12-23T04:18:19.390Z,61.24
2018-12-23T04:19:21.865Z,61.09
2018-12-23T04:20:24.345Z,61.24
2018-12-23T04:21:26.837Z,60.95
2018-12-23T04:22:29.316Z,61.40
2018-12-23T04:23:31.797Z,60.94
2018-12-23T04:24:34.289Z,61.29
2018-12-23T04:25:36.767Z,61.31
2018-12-23T04:26:39.262Z,60.83
2018-12-23T04:27:41.757Z,61.14
2018-12-23T04:28:44.257Z,61.56
2018-12-23T04:29:46.906Z,61.17
2018-12-23T04:30:49.385Z,61.40
2018-12-23T04:31:51.853Z,61.10
2018-12-23T04:32:54.327Z,61.16
2018-12-23T04:33:56.942Z,61.22
2018-12-23T04:34:59.404Z,60.97
2018-12-23T04:36:01.874Z,61.39
2018-12-23T04:37:04.371Z,61.24
2018-12-23T04:38:06.846Z,60.88
2018-12-23T04:39:09.345Z,60.65
2018-12-23T04:40:11.822Z,61.10
2018-12-23T04:41:14.317Z,61.68
2018-12-23T04:42:16.780Z,61.34
2018-12-23T04:43:19.258Z,61.29
2018-12-23T04:44:21.754Z,61.51
2018-12-23T04:45:24.219Z,61.35
2018-12-23T04:46:26.781Z,61.53
2018-12-23T04:47:29.358Z,60.73
2018-12-23T04:48:31.811Z,61.10
2018-12-23T04:49:34.329Z,61.77
2018-12-23T04:50:36.826Z,61.77
2018-12-23T04:51:39.322Z,61.64
2018-12-23T04:52:41.798Z,61.11
2018-12-23T04:53:44.289Z,61.55
2018-12-23T04:54:46.880Z,61.10
2018-12-23T04:55:49.354Z,61.56
2018-12-23T04:56:51.829Z,61.75
2018-12-23T04:57:54.310Z,61.67
2018-12-23T04:58:56.798Z,61.81
2018-12-23T04:59:59.276Z,61.64
2018-12-23T05:01:01.750Z,61.75
2018-12-23T05:02:04.325Z,61.95
2018-12-23T05:03:06.851Z,61.73
2018-12-23T05:04:09.332Z,61.43
2018-12-23T05:05:11.849Z,61.56
2018-12-23T05:06:14.314Z,61.64
2018-12-23T05:07:16.792Z,62.18
2018-12-23T05:08:19.270Z,61.90
2018-12-23T05:09:21.728Z,62.29
2018-12-23T05:10:24.208Z,62.48
2018-12-23T05:11:26.699Z,61.73
2018-12-23T05:12:29.194Z,61.85
2018-12-23T05:13:31.688Z,61.78
2018-12-23T05:14:34.186Z,62.07
2018-12-23T05:15:36.677Z,62.56
2018-12-23T05:16:39.172Z,62.60
2018-12-23T05:17:41.665Z,62.58
2018-12-23T05:18:44.139Z,61.91
2018-12-23T05:19:46.632Z,62.34
2018-12-23T05:20:49.109Z,62.97
2018-12-23T05:21:51.602Z,62.66
2018-12-23T05:22:54.094Z,62.35
2018-12-23T05:23:56.572Z,61.86
2018-12-23T05:24:59.114Z,61.65
2018-12-23T05:26:01.622Z,61.82
2018-12-23T05:27:04.158Z,61.91
2018-12-23T05:28:06.624Z,62.81
2018-12-23T05:29:09.083Z,62.72
2018-12-23T05:30:11.573Z,62.26
2018-12-23T05:31:14.084Z,62.07
2018-12-23T05:32:16.541Z,62.34
2018-12-23T05:33:19.015Z,62.36
2018-12-23T05:34:21.495Z,61.73
2018-12-23T05:35:23.972Z,62.35
2018-12-23T05:36:26.475Z,62.83
2018-12-23T05:37:28.950Z,62.28
2018-12-23T05:38:31.437Z,62.01
2018-12-23T05:39:33.919Z,62.36
2018-12-23T05:40:36.390Z,62.18
2018-12-23T05:41:38.973Z,62.49
2018-12-23T05:42:41.447Z,62.32
2018-12-23T05:43:43.910Z,62.93
2018-12-23T05:44:46.394Z,63.14
2018-12-23T05:45:48.870Z,62.35
2018-12-23T05:46:51.340Z,62.52
2018-12-23T05:47:53.800Z,62.09
2018-12-23T05:48:56.275Z,62.40
2018-12-23T05:49:58.764Z,62.75
2018-12-23T05:51:01.240Z,62.58
2018-12-23T05:52:03.802Z,62.41
2018-12-23T05:53:06.256Z,62.94
2018-12-23T05:54:08.712Z,62.46
2018-12-23T05:55:11.181Z,62.70
2018-12-23T05:56:13.650Z,62.56
2018-12-23T05:57:16.161Z,62.45
2018-12-23T05:58:18.648Z,62.91
2018-12-23T05:59:21.141Z,62.36
2018-12-23T06:00:23.622Z,63.07
2018-12-23T06:01:26.098Z,61.12
2018-12-23T06:02:28.594Z,60.38
2018-12-23T06:03:31.052Z,58.69
2018-12-23T06:04:33.541Z,57.44
2018-12-23T06:05:36.140Z,56.72
2018-12-23T06:06:38.729Z,56.32
2018-12-23T06:07:41.207Z,56.50
2018-12-23T06:08:43.683Z,56.17
2018-12-23T06:09:46.162Z,55.80
2018-12-23T06:10:48.638Z,56.50
2018-12-23T06:11:51.109Z,55.94
2018-12-23T06:12:53.594Z,56.85
2018-12-23T06:13:56.090Z,58.25
2018-12-23T06:14:58.593Z,57.78
2018-12-23T06:16:01.066Z,58.53
2018-12-23T06:17:03.623Z,59.68
2018-12-23T06:18:06.237Z,59.12
2018-12-23T06:19:08.718Z,59.02
2018-12-23T06:20:11.202Z,59.53
2018-12-23T06:21:13.660Z,58.66
2018-12-23T06:22:16.137Z,58.94
2018-12-23T06:23:18.646Z,58.21
2018-12-23T06:24:21.114Z,58.08
2018-12-23T06:25:23.591Z,57.82
2018-12-23T06:26:26.067Z,57.78
2018-12-23T06:27:28.528Z,57.77
2018-12-23T06:28:31.042Z,57.32
2018-12-23T06:29:33.526Z,58.03
2018-12-23T06:30:35.986Z,57.83
2018-12-23T06:31:38.449Z,58.40
2018-12-23T06:32:40.912Z,59.16
2018-12-23T06:33:43.406Z,59.00
2018-12-23T06:34:45.868Z,59.57
2018-12-23T06:35:48.328Z,60.30
2018-12-23T06:36:50.810Z,61.80
2018-12-23T06:37:53.267Z,61.42
2018-12-23T06:38:55.767Z,61.86
2018-12-23T06:39:58.256Z,61.07
2018-12-23T06:41:00.748Z,60.37
2018-12-23T06:42:03.212Z,59.69
2018-12-23T06:43:05.690Z,59.66
2018-12-23T06:44:08.204Z,59.46
2018-12-23T06:45:10.697Z,59.02
2018-12-23T06:46:13.160Z,58.27
2018-12-23T06:47:15.638Z,57.89
2018-12-23T06:48:18.117Z,57.95
2018-12-23T06:49:20.622Z,58.37
2018-12-23T06:50:24.115Z,58.25
2018-12-23T06:51:26.576Z,58.00
2018-12-23T06:52:29.079Z,58.25
2018-12-23T06:53:31.626Z,57.73
2018-12-23T06:54:34.108Z,57.59
2018-12-23T06:55:36.587Z,57.49
2018-12-23T06:56:39.062Z,57.41
2018-12-23T06:57:41.561Z,58.63
2018-12-23T06:58:44.042Z,59.60
2018-12-23T06:59:46.534Z,59.66
2018-12-23T07:00:49.024Z,59.79
2018-12-23T07:01:51.502Z,60.34
2018-12-23T07:02:53.996Z,60.97
2018-12-23T07:03:56.497Z,60.55
2018-12-23T07:04:58.991Z,60.12
2018-12-23T07:06:01.481Z,60.09
2018-12-23T07:07:03.973Z,59.84
2018-12-23T07:08:06.481Z,60.34
2018-12-23T07:09:08.977Z,60.58
2018-12-23T07:10:11.493Z,60.17
2018-12-23T07:11:14.050Z,59.32
2018-12-23T07:12:16.533Z,59.17
2018-12-23T07:13:19.022Z,58.98
2018-12-23T07:14:21.505Z,59.01
2018-12-23T07:15:24.021Z,58.86
2018-12-23T07:16:26.484Z,59.36
2018-12-23T07:17:28.967Z,58.63
2018-12-23T07:18:31.431Z,59.25
2018-12-23T07:19:33.892Z,58.77
2018-12-23T07:20:36.386Z,57.82
2018-12-23T07:21:38.892Z,57.59
2018-12-23T07:22:41.374Z,58.00
2018-12-23T07:23:43.846Z,58.38
2018-12-23T07:24:46.340Z,57.69
2018-12-23T07:25:48.842Z,57.59
2018-12-23T07:26:51.323Z,57.25
2018-12-23T07:27:53.787Z,57.72
2018-12-23T07:28:56.262Z,57.20
2018-12-23T07:29:58.753Z,56.86
2018-12-23T07:31:01.256Z,57.04
2018-12-23T07:32:03.716Z,56.67
2018-12-23T07:33:06.437Z,56.67
2018-12-23T07:34:08.904Z,56.92
2018-12-23T07:35:11.379Z,57.09
2018-12-23T07:36:13.923Z,56.71
2018-12-23T07:37:16.478Z,57.18
2018-12-23T07:38:18.959Z,56.50
2018-12-23T07:39:21.444Z,56.56
2018-12-23T07:40:23.929Z,56.61
2018-12-23T07:41:26.430Z,56.48
2018-12-23T07:42:28.906Z,56.24
2018-12-23T07:43:31.383Z,56.50
2018-12-23T07:44:33.861Z,56.82
2018-12-23T07:45:36.377Z,56.47
2018-12-23T07:46:38.872Z,56.11
2018-12-23T07:47:41.340Z,56.09
2018-12-23T07:48:43.822Z,56.57
2018-12-23T07:49:46.298Z,55.80
2018-12-23T07:50:48.795Z,55.86
2018-12-23T07:51:51.274Z,56.05
2018-12-23T07:52:53.751Z,56.00
2018-12-23T07:53:56.245Z,56.50
2018-12-23T07:54:58.727Z,56.13
2018-12-23T07:56:01.223Z,56.20
2018-12-23T07:57:03.784Z,56.36
2018-12-23T07:58:06.266Z,56.47
2018-12-23T07:59:08.746Z,56.70
2018-12-23T08:00:11.208Z,56.56
2018-12-23T08:01:13.697Z,57.03
2018-12-23T08:02:16.185Z,57.07
2018-12-23T08:03:18.644Z,56.38
2018-12-23T08:04:21.103Z,56.92
2018-12-23T08:05:23.578Z,57.36
2018-12-23T08:06:26.060Z,56.62
2018-12-23T08:07:35.951Z,56.77
2018-12-23T08:08:33.015Z,56.45
2018-12-23T08:09:35.480Z,57.20
2018-12-23T08:10:37.950Z,57.23
2018-12-23T08:11:40.472Z,57.29
2018-12-23T08:12:42.936Z,56.54
2018-12-23T08:13:45.506Z,57.31
2018-12-23T08:14:47.964Z,56.78
2018-12-23T08:15:50.423Z,57.05
2018-12-23T08:16:53.195Z,57.41
2018-12-23T08:17:55.692Z,57.35
2018-12-23T08:18:58.265Z,56.78
2018-12-23T08:20:00.823Z,56.73
2018-12-23T08:21:03.522Z,56.72
2018-12-23T08:22:06.023Z,57.45
2018-12-23T08:23:08.487Z,57.31
2018-12-23T08:24:10.966Z,56.91
2018-12-23T08:25:13.451Z,57.19
2018-12-23T08:26:15.931Z,57.01
2018-12-23T08:27:18.431Z,56.86
2018-12-23T08:28:20.907Z,56.80
2018-12-23T08:29:23.399Z,57.37
2018-12-23T08:30:25.864Z,57.39
2018-12-23T08:31:28.339Z,57.41
2018-12-23T08:32:30.841Z,56.83
2018-12-23T08:33:33.484Z,57.62
2018-12-23T08:34:35.985Z,57.32
2018-12-23T08:35:38.466Z,56.93
2018-12-23T08:36:40.946Z,57.59
2018-12-23T08:37:44.715Z,57.59
2018-12-23T08:38:47.534Z,57.50
2018-12-23T08:39:50.016Z,56.90
2018-12-23T08:40:52.475Z,57.58
2018-12-23T08:41:55.013Z,57.01
2018-12-23T08:42:57.514Z,57.65
2018-12-23T08:44:00.010Z,56.85
2018-12-23T08:45:02.509Z,57.14
2018-12-23T08:46:04.991Z,56.95
2018-12-23T08:47:07.478Z,57.50
2018-12-23T08:48:10.034Z,57.44
2018-12-23T08:49:12.529Z,57.09
2018-12-23T08:50:15.015Z,57.54
2018-12-23T08:51:17.587Z,57.37
2018-12-23T08:52:20.072Z,57.47
2018-12-23T08:53:22.563Z,57.09
2018-12-23T08:54:25.034Z,57.57
2018-12-23T08:55:27.513Z,57.00
2018-12-23T08:56:29.994Z,57.52
2018-12-23T08:57:32.474Z,57.40
2018-12-23T08:58:34.962Z,56.99
2018-12-23T08:59:37.442Z,57.34
2018-12-23T09:00:39.913Z,57.38
2018-12-23T09:01:42.410Z,57.05
2018-12-23T09:02:44.976Z,57.07
2018-12-23T09:03:47.602Z,57.44
2018-12-23T09:04:50.108Z,56.96
2018-12-23T09:05:52.710Z,57.11
2018-12-23T09:06:55.222Z,57.03
2018-12-23T09:07:57.727Z,57.58
2018-12-23T09:09:00.230Z,57.57
2018-12-23T09:10:02.777Z,56.98
2018-12-23T09:11:05.249Z,57.45
2018-12-23T09:12:07.779Z,57.21
2018-12-23T09:13:10.258Z,57.18
2018-12-23T09:14:12.750Z,56.92
2018-12-23T09:15:15.212Z,56.94
2018-12-23T09:16:18.063Z,57.56
2018-12-23T09:17:20.660Z,56.73
2018-12-23T09:18:23.127Z,56.88
2018-12-23T09:19:25.633Z,57.00
2018-12-23T09:20:28.132Z,57.53
2018-12-23T09:21:30.620Z,56.80
2018-12-23T09:22:33.095Z,56.98
2018-12-23T09:23:35.574Z,57.38
2018-12-23T09:24:38.054Z,57.42
2018-12-23T09:25:40.514Z,57.48
2018-12-23T09:26:43.104Z,56.93
2018-12-23T09:27:45.597Z,57.35
2018-12-23T09:28:48.092Z,56.83
2018-12-23T09:29:50.606Z,56.85
2018-12-23T09:30:53.069Z,57.43
2018-12-23T09:31:55.595Z,57.34
2018-12-23T09:32:58.085Z,56.87
2018-12-23T09:34:00.577Z,57.09
2018-12-23T09:35:03.089Z,56.95
2018-12-23T09:36:05.551Z,57.05
2018-12-23T09:37:08.022Z,56.80
2018-12-23T09:38:10.513Z,56.87
2018-12-23T09:39:13.002Z,56.78
2018-12-23T09:40:15.574Z,56.65
2018-12-23T09:41:18.058Z,57.12
2018-12-23T09:42:20.523Z,57.05
2018-12-23T09:43:22.998Z,57.24
2018-12-23T09:44:25.468Z,57.17
2018-12-23T09:45:28.011Z,57.31
2018-12-23T09:46:30.472Z,56.78
2018-12-23T09:47:32.973Z,57.33
2018-12-23T09:48:35.465Z,57.06
2018-12-23T09:49:37.961Z,56.74
2018-12-23T09:50:40.473Z,56.72
2018-12-23T09:51:42.936Z,56.65
2018-12-23T09:52:45.422Z,56.84
2018-12-23T09:53:47.883Z,57.26
2018-12-23T09:54:50.363Z,56.76
2018-12-23T09:55:52.873Z,56.73
2018-12-23T09:56:55.373Z,56.85
2018-12-23T09:57:57.852Z,56.70
2018-12-23T09:59:00.327Z,57.24
2018-12-23T10:00:02.961Z,56.90
2018-12-23T10:01:05.516Z,56.53
2018-12-23T10:02:07.973Z,57.17
2018-12-23T10:03:10.488Z,57.12
2018-12-23T10:04:13.071Z,57.30
2018-12-23T10:05:15.570Z,57.05
2018-12-23T10:06:18.064Z,56.97
2018-12-23T10:07:20.545Z,56.66
2018-12-23T10:08:23.053Z,57.05
2018-12-23T10:09:25.549Z,56.95
2018-12-23T10:10:28.643Z,56.76
2018-12-23T10:11:31.382Z,56.67
2018-12-23T10:12:34.633Z,56.92
2018-12-23T10:13:37.100Z,57.17
2018-12-23T10:14:39.564Z,56.64
2018-12-23T10:15:42.054Z,57.14
2018-12-23T10:16:44.556Z,56.64
2018-12-23T10:17:47.042Z,56.80
2018-12-23T10:18:49.517Z,57.21
2018-12-23T10:19:51.998Z,57.09
2018-12-23T10:20:54.465Z,56.80
2018-12-23T10:21:56.977Z,56.60
2018-12-23T10:22:59.461Z,57.19
2018-12-23T10:24:01.949Z,56.73
2018-12-23T10:25:04.571Z,57.07
2018-12-23T10:26:07.070Z,57.29
2018-12-23T10:27:09.563Z,56.54
2018-12-23T10:28:12.099Z,56.71
2018-12-23T10:29:14.573Z,56.79
2018-12-23T10:30:17.050Z,57.00
2018-12-23T10:31:19.527Z,56.78
2018-12-23T10:32:22.056Z,56.54
2018-12-23T10:33:24.561Z,56.98
2018-12-23T10:34:27.034Z,57.02
2018-12-23T10:35:29.529Z,56.97
2018-12-23T10:36:32.012Z,56.76
2018-12-23T10:37:34.502Z,56.71
2018-12-23T10:38:36.993Z,56.45
2018-12-23T10:39:39.452Z,57.04
2018-12-23T10:40:41.931Z,56.39
2018-12-23T10:41:44.396Z,56.37
2018-12-23T10:42:46.875Z,56.66
2018-12-23T10:43:49.365Z,56.71
2018-12-23T10:44:51.901Z,57.04
2018-12-23T10:45:54.458Z,56.88
2018-12-23T10:46:56.934Z,56.42
2018-12-23T10:47:59.430Z,56.37
2018-12-23T10:49:01.927Z,57.05
2018-12-23T10:50:04.828Z,56.91
2018-12-23T10:51:07.287Z,56.64
2018-12-23T10:52:09.781Z,56.29
2018-12-23T10:53:12.272Z,56.84
2018-12-23T10:54:14.751Z,56.32
2018-12-23T10:55:17.224Z,56.29
2018-12-23T10:56:19.720Z,56.84
2018-12-23T10:57:22.180Z,56.79
2018-12-23T10:58:24.746Z,56.63
2018-12-23T10:59:27.292Z,56.60
2018-12-23T11:00:29.794Z,56.79
2018-12-23T11:01:32.266Z,56.27
2018-12-23T11:02:34.742Z,56.80
2018-12-23T11:03:37.234Z,57.03
2018-12-23T11:04:39.718Z,56.28
2018-12-23T11:05:42.198Z,56.33
2018-12-23T11:06:44.670Z,56.81
2018-12-23T11:07:47.128Z,56.21
2018-12-23T11:08:49.609Z,56.26
2018-12-23T11:09:52.069Z,56.61
2018-12-23T11:10:54.532Z,56.44
2018-12-23T11:11:56.998Z,56.85
2018-12-23T11:12:59.470Z,56.79
2018-12-23T11:14:02.038Z,56.38
2018-12-23T11:15:05.640Z,56.74
2018-12-23T11:16:08.122Z,56.67
2018-12-23T11:17:10.617Z,56.26
2018-12-23T11:18:13.109Z,56.63
2018-12-23T11:19:15.653Z,56.08
2018-12-23T11:20:18.107Z,56.10
2018-12-23T11:21:20.590Z,56.61
2018-12-23T11:22:23.069Z,56.75
2018-12-23T11:23:25.536Z,56.69
2018-12-23T11:24:28.029Z,56.70
2018-12-23T11:25:30.492Z,56.72
2018-12-23T11:26:32.951Z,56.18
2018-12-23T11:27:35.408Z,56.23
2018-12-23T11:28:37.882Z,56.58
2018-12-23T11:29:40.375Z,56.43
2018-12-23T11:30:42.850Z,56.21
2018-12-23T11:31:45.327Z,56.09
2018-12-23T11:32:47.803Z,56.68
2018-12-23T11:33:50.265Z,56.56
2018-12-23T11:34:52.740Z,56.43
2018-12-23T11:35:55.258Z,56.19
2018-12-23T11:36:57.735Z,56.13
2018-12-23T11:38:00.233Z,56.75
2018-12-23T11:39:03.082Z,56.10
2018-12-23T11:40:07.704Z,56.11
2018-12-23T11:41:10.165Z,56.03
2018-12-23T11:42:12.619Z,56.50
2018-12-23T11:43:15.094Z,56.00
2018-12-23T11:44:17.567Z,56.75
2018-12-23T11:45:20.067Z,56.00
2018-12-23T11:46:22.538Z,56.34
2018-12-23T11:47:25.000Z,56.61
2018-12-23T11:48:27.488Z,55.98
2018-12-23T11:49:29.952Z,56.63
2018-12-23T11:50:32.428Z,56.60
2018-12-23T11:51:34.884Z,56.39
2018-12-23T11:52:37.336Z,56.09
2018-12-23T11:53:39.792Z,56.59
2018-12-23T11:54:42.262Z,56.02
2018-12-23T11:55:44.776Z,56.59
2018-12-23T11:56:47.236Z,56.19
2018-12-23T11:57:49.725Z,55.95
2018-12-23T11:58:52.197Z,56.02
2018-12-23T11:59:54.679Z,56.07
2018-12-23T12:00:57.161Z,56.38
2018-12-23T12:01:59.630Z,56.06
2018-12-23T12:03:02.121Z,55.92
2018-12-23T12:04:04.578Z,55.94
2018-12-23T12:05:07.033Z,56.03
2018-12-23T12:06:09.545Z,56.06
2018-12-23T12:07:12.023Z,56.58
2018-12-23T12:08:14.513Z,56.18
2018-12-23T12:09:16.988Z,56.39
2018-12-23T12:10:19.455Z,56.26
2018-12-23T12:11:21.950Z,55.98
2018-12-23T12:12:24.407Z,56.54
2018-12-23T12:13:27.058Z,56.02
2018-12-23T12:14:29.535Z,55.95
2018-12-23T12:15:32.027Z,55.88
2018-12-23T12:16:34.500Z,56.05
2018-12-23T12:17:36.975Z,56.35
2018-12-23T12:18:39.447Z,56.25
2018-12-23T12:19:41.927Z,56.56
2018-12-23T12:20:44.404Z,56.60
2018-12-23T12:21:46.913Z,56.57
2018-12-23T12:22:49.392Z,56.01
2018-12-23T12:23:51.874Z,56.00
2018-12-23T12:24:54.354Z,56.40
2018-12-23T12:25:56.831Z,56.53
2018-12-23T12:26:59.322Z,55.92
2018-12-23T12:28:01.813Z,55.96
2018-12-23T12:29:04.284Z,55.99
2018-12-23T12:30:06.830Z,55.95
2018-12-23T12:31:09.305Z,56.38
2018-12-23T12:32:11.816Z,55.95
2018-12-23T12:33:14.291Z,56.46
2018-12-23T12:34:16.767Z,56.65
2018-12-23T12:35:19.261Z,55.99
2018-12-23T12:36:21.810Z,56.07
2018-12-23T12:37:24.310Z,56.22
2018-12-23T12:38:26.769Z,56.53
2018-12-23T12:39:29.224Z,55.88
2018-12-23T12:40:31.712Z,56.31
2018-12-23T12:41:34.195Z,56.10
2018-12-23T12:42:36.671Z,56.46
2018-12-23T12:43:39.150Z,55.95
2018-12-23T12:44:41.612Z,56.41
2018-12-23T12:45:44.108Z,56.29
2018-12-23T12:46:46.589Z,55.90
2018-12-23T12:47:49.064Z,55.93
2018-12-23T12:48:51.542Z,55.96
2018-12-23T12:49:54.013Z,55.88
2018-12-23T12:50:56.514Z,56.45
2018-12-23T12:51:58.995Z,55.75
2018-12-23T12:53:01.477Z,55.91
2018-12-23T12:54:03.931Z,56.17
2018-12-23T12:55:06.389Z,56.18
2018-12-23T12:56:08.866Z,56.33
2018-12-23T12:57:11.357Z,55.74
2018-12-23T12:58:13.872Z,56.27
2018-12-23T12:59:16.364Z,55.77
2018-12-23T13:00:18.858Z,56.20
2018-12-23T13:01:21.333Z,55.65
2018-12-23T13:02:23.822Z,56.25
2018-12-23T13:03:26.320Z,56.08
2018-12-23T13:04:28.805Z,56.09
2018-12-23T13:05:31.282Z,56.03
2018-12-23T13:06:33.740Z,56.08
2018-12-23T13:07:36.211Z,55.50
2018-12-23T13:08:38.711Z,55.54
2018-12-23T13:09:41.197Z,55.70
2018-12-23T13:10:43.660Z,55.45
2018-12-23T13:11:46.130Z,56.05
2018-12-23T13:12:48.606Z,55.70
2018-12-23T13:13:51.083Z,55.97
2018-12-23T13:14:53.544Z,55.82
2018-12-23T13:15:56.022Z,55.60
2018-12-23T13:16:58.480Z,55.24
2018-12-23T13:18:00.936Z,55.94
2018-12-23T13:19:03.492Z,55.89
2018-12-23T13:20:06.784Z,55.95
2018-12-23T13:21:09.263Z,55.45
2018-12-23T13:22:11.743Z,55.68
2018-12-23T13:23:14.218Z,55.93
2018-12-23T13:24:16.729Z,55.96
2018-12-23T13:25:19.202Z,55.69